sensor_id;sensor_type;location;lat;lon;timestamp;P1;durP1;ratioP1;P2;durP2;ratioP2
12356;SDS011;6243;51.244;6.774;2023-03-01T00:00:48;8.97;;;6.30;;
12356;SDS011;6243;51.244;6.774;2023-03-01T00:03:14;9.33;;;7.50;;
12356;SDS011;6243;51.244;6.774;2023-03-01T00:05:43;7.53;;;6.17;;
12356;SDS011;6243;51.244;6.774;2023-03-01T00:08:09;8.83;;;6.73;;
12356;SDS011;6243;51.244;6.774;2023-03-01T00:10:34;8.33;;;6.60;;
12356;SDS011;6243;51.244;6.774;2023-03-01T00:13:01;9.87;;;6.67;;
12356;SDS011;6243;51.244;6.774;2023-03-01T00:15:27;8.70;;;6.73;;
12356;SDS011;6243;51.244;6.774;2023-03-01T00:17:52;7.23;;;6.33;;
12356;SDS011;6243;51.244;6.774;2023-03-01T00:20:18;10.23;;;7.00;;
12356;SDS011;6243;51.244;6.774;2023-03-01T00:22:43;7.87;;;7.03;;
12356;SDS011;6243;51.244;6.774;2023-03-01T00:25:09;9.20;;;7.07;;
12356;SDS011;6243;51.244;6.774;2023-03-01T00:27:34;8.33;;;7.27;;
12356;SDS011;6243;51.244;6.774;2023-03-01T00:30:01;9.83;;;7.40;;
12356;SDS011;6243;51.244;6.774;2023-03-01T00:32:27;7.50;;;6.13;;
12356;SDS011;6243;51.244;6.774;2023-03-01T00:34:52;9.40;;;7.37;;
12356;SDS011;6243;51.244;6.774;2023-03-01T00:37:18;8.53;;;6.87;;
12356;SDS011;6243;51.244;6.774;2023-03-01T00:39:43;8.27;;;6.80;;
12356;SDS011;6243;51.244;6.774;2023-03-01T00:42:09;7.93;;;6.87;;
12356;SDS011;6243;51.244;6.774;2023-03-01T00:44:34;9.80;;;8.00;;
12356;SDS011;6243;51.244;6.774;2023-03-01T00:47:01;7.87;;;6.63;;
12356;SDS011;6243;51.244;6.774;2023-03-01T00:49:26;8.73;;;6.60;;
12356;SDS011;6243;51.244;6.774;2023-03-01T00:51:52;8.60;;;7.17;;
12356;SDS011;6243;51.244;6.774;2023-03-01T00:54:18;10.17;;;7.30;;
12356;SDS011;6243;51.244;6.774;2023-03-01T00:56:43;8.27;;;6.80;;
12356;SDS011;6243;51.244;6.774;2023-03-01T00:59:09;8.83;;;7.10;;
12356;SDS011;6243;51.244;6.774;2023-03-01T01:01:34;8.80;;;6.90;;
12356;SDS011;6243;51.244;6.774;2023-03-01T01:04:02;8.93;;;7.03;;
12356;SDS011;6243;51.244;6.774;2023-03-01T01:06:30;9.37;;;6.70;;
12356;SDS011;6243;51.244;6.774;2023-03-01T01:08:57;9.30;;;7.07;;
12356;SDS011;6243;51.244;6.774;2023-03-01T01:11:24;12.87;;;7.37;;
12356;SDS011;6243;51.244;6.774;2023-03-01T01:13:51;8.70;;;6.90;;
12356;SDS011;6243;51.244;6.774;2023-03-01T01:16:17;8.97;;;6.97;;
12356;SDS011;6243;51.244;6.774;2023-03-01T01:18:43;8.17;;;6.90;;
12356;SDS011;6243;51.244;6.774;2023-03-01T01:21:11;8.97;;;7.17;;
12356;SDS011;6243;51.244;6.774;2023-03-01T01:23:39;9.47;;;6.80;;
12356;SDS011;6243;51.244;6.774;2023-03-01T01:26:06;8.50;;;7.13;;
12356;SDS011;6243;51.244;6.774;2023-03-01T01:28:33;9.03;;;7.20;;
12356;SDS011;6243;51.244;6.774;2023-03-01T01:30:58;8.53;;;7.60;;
12356;SDS011;6243;51.244;6.774;2023-03-01T01:33:24;8.27;;;7.27;;
12356;SDS011;6243;51.244;6.774;2023-03-01T01:35:49;9.27;;;7.20;;
12356;SDS011;6243;51.244;6.774;2023-03-01T01:38:16;8.90;;;7.40;;
12356;SDS011;6243;51.244;6.774;2023-03-01T01:40:45;9.03;;;6.87;;
12356;SDS011;6243;51.244;6.774;2023-03-01T01:43:13;8.43;;;7.53;;
12356;SDS011;6243;51.244;6.774;2023-03-01T01:45:44;9.63;;;7.63;;
12356;SDS011;6243;51.244;6.774;2023-03-01T01:48:10;10.23;;;7.53;;
12356;SDS011;6243;51.244;6.774;2023-03-01T01:50:40;10.17;;;7.50;;
12356;SDS011;6243;51.244;6.774;2023-03-01T01:53:07;10.33;;;7.10;;
12356;SDS011;6243;51.244;6.774;2023-03-01T01:55:36;9.53;;;7.30;;
12356;SDS011;6243;51.244;6.774;2023-03-01T01:58:07;11.30;;;7.13;;
12356;SDS011;6243;51.244;6.774;2023-03-01T02:00:35;10.33;;;7.40;;
12356;SDS011;6243;51.244;6.774;2023-03-01T02:03:04;7.80;;;7.00;;
12356;SDS011;6243;51.244;6.774;2023-03-01T02:05:35;9.17;;;7.37;;
12356;SDS011;6243;51.244;6.774;2023-03-01T02:08:04;7.80;;;6.97;;
12356;SDS011;6243;51.244;6.774;2023-03-01T02:10:31;9.60;;;7.13;;
12356;SDS011;6243;51.244;6.774;2023-03-01T02:13:00;8.13;;;6.87;;
12356;SDS011;6243;51.244;6.774;2023-03-01T02:15:26;8.60;;;6.90;;
12356;SDS011;6243;51.244;6.774;2023-03-01T02:17:52;9.87;;;7.57;;
12356;SDS011;6243;51.244;6.774;2023-03-01T02:20:20;10.93;;;6.97;;
12356;SDS011;6243;51.244;6.774;2023-03-01T02:22:51;10.23;;;7.40;;
12356;SDS011;6243;51.244;6.774;2023-03-01T02:25:23;9.90;;;6.90;;
12356;SDS011;6243;51.244;6.774;2023-03-01T02:28:02;10.00;;;7.23;;
12356;SDS011;6243;51.244;6.774;2023-03-01T02:30:34;8.60;;;7.47;;
12356;SDS011;6243;51.244;6.774;2023-03-01T02:33:00;10.53;;;7.63;;
12356;SDS011;6243;51.244;6.774;2023-03-01T02:35:28;7.27;;;6.30;;
12356;SDS011;6243;51.244;6.774;2023-03-01T02:37:55;8.57;;;7.07;;
12356;SDS011;6243;51.244;6.774;2023-03-01T02:40:21;7.93;;;7.13;;
12356;SDS011;6243;51.244;6.774;2023-03-01T02:42:47;9.83;;;7.73;;
12356;SDS011;6243;51.244;6.774;2023-03-01T02:45:16;10.53;;;7.60;;
12356;SDS011;6243;51.244;6.774;2023-03-01T02:47:44;10.50;;;7.60;;
12356;SDS011;6243;51.244;6.774;2023-03-01T02:50:12;7.77;;;6.90;;
12356;SDS011;6243;51.244;6.774;2023-03-01T02:52:47;10.27;;;7.57;;
12356;SDS011;6243;51.244;6.774;2023-03-01T02:55:21;8.37;;;7.33;;
12356;SDS011;6243;51.244;6.774;2023-03-01T02:57:46;10.37;;;7.23;;
12356;SDS011;6243;51.244;6.774;2023-03-01T03:00:14;9.13;;;7.93;;
12356;SDS011;6243;51.244;6.774;2023-03-01T03:02:44;8.83;;;7.13;;
12356;SDS011;6243;51.244;6.774;2023-03-01T03:05:11;9.20;;;7.13;;
12356;SDS011;6243;51.244;6.774;2023-03-01T03:07:39;9.13;;;7.43;;
12356;SDS011;6243;51.244;6.774;2023-03-01T03:10:06;10.57;;;7.00;;
12356;SDS011;6243;51.244;6.774;2023-03-01T03:12:33;9.43;;;7.60;;
12356;SDS011;6243;51.244;6.774;2023-03-01T03:14:59;9.67;;;7.67;;
12356;SDS011;6243;51.244;6.774;2023-03-01T03:17:24;9.60;;;7.27;;
12356;SDS011;6243;51.244;6.774;2023-03-01T03:19:51;9.53;;;7.53;;
12356;SDS011;6243;51.244;6.774;2023-03-01T03:22:17;8.67;;;7.33;;
12356;SDS011;6243;51.244;6.774;2023-03-01T03:24:42;10.23;;;7.87;;
12356;SDS011;6243;51.244;6.774;2023-03-01T03:27:08;9.67;;;7.13;;
12356;SDS011;6243;51.244;6.774;2023-03-01T03:29:33;8.30;;;7.47;;
12356;SDS011;6243;51.244;6.774;2023-03-01T03:31:59;7.93;;;7.13;;
12356;SDS011;6243;51.244;6.774;2023-03-01T03:34:25;10.73;;;7.60;;
12356;SDS011;6243;51.244;6.774;2023-03-01T03:36:54;11.57;;;7.77;;
12356;SDS011;6243;51.244;6.774;2023-03-01T03:39:20;10.73;;;8.03;;
12356;SDS011;6243;51.244;6.774;2023-03-01T03:41:45;10.97;;;7.70;;
12356;SDS011;6243;51.244;6.774;2023-03-01T03:44:11;8.57;;;7.40;;
12356;SDS011;6243;51.244;6.774;2023-03-01T03:46:36;11.07;;;8.53;;
12356;SDS011;6243;51.244;6.774;2023-03-01T03:49:01;12.37;;;8.00;;
12356;SDS011;6243;51.244;6.774;2023-03-01T03:51:27;9.97;;;8.20;;
12356;SDS011;6243;51.244;6.774;2023-03-01T03:53:54;9.47;;;7.73;;
12356;SDS011;6243;51.244;6.774;2023-03-01T03:56:19;10.53;;;7.93;;
12356;SDS011;6243;51.244;6.774;2023-03-01T03:58:45;10.23;;;8.07;;
12356;SDS011;6243;51.244;6.774;2023-03-01T04:01:10;9.67;;;8.07;;
12356;SDS011;6243;51.244;6.774;2023-03-01T04:03:36;8.73;;;7.83;;
12356;SDS011;6243;51.244;6.774;2023-03-01T04:06:02;10.73;;;7.87;;
12356;SDS011;6243;51.244;6.774;2023-03-01T04:08:28;8.20;;;6.87;;
12356;SDS011;6243;51.244;6.774;2023-03-01T04:10:58;10.73;;;8.40;;
12356;SDS011;6243;51.244;6.774;2023-03-01T04:13:25;9.20;;;8.13;;
12356;SDS011;6243;51.244;6.774;2023-03-01T04:15:51;12.77;;;7.87;;
12356;SDS011;6243;51.244;6.774;2023-03-01T04:18:18;10.53;;;8.17;;
12356;SDS011;6243;51.244;6.774;2023-03-01T04:20:44;9.80;;;8.30;;
12356;SDS011;6243;51.244;6.774;2023-03-01T04:23:11;11.50;;;8.43;;
12356;SDS011;6243;51.244;6.774;2023-03-01T04:25:38;8.80;;;7.90;;
12356;SDS011;6243;51.244;6.774;2023-03-01T04:28:06;9.70;;;8.43;;
12356;SDS011;6243;51.244;6.774;2023-03-01T04:30:31;10.33;;;8.80;;
12356;SDS011;6243;51.244;6.774;2023-03-01T04:32:57;11.93;;;8.57;;
12356;SDS011;6243;51.244;6.774;2023-03-01T04:35:22;10.27;;;8.27;;
12356;SDS011;6243;51.244;6.774;2023-03-01T04:37:48;12.97;;;8.97;;
12356;SDS011;6243;51.244;6.774;2023-03-01T04:40:14;11.20;;;8.73;;
12356;SDS011;6243;51.244;6.774;2023-03-01T04:42:40;10.93;;;8.33;;
12356;SDS011;6243;51.244;6.774;2023-03-01T04:45:07;12.50;;;7.57;;
12356;SDS011;6243;51.244;6.774;2023-03-01T04:47:33;11.87;;;8.50;;
12356;SDS011;6243;51.244;6.774;2023-03-01T04:49:58;11.20;;;8.10;;
12356;SDS011;6243;51.244;6.774;2023-03-01T04:52:24;10.53;;;8.00;;
12356;SDS011;6243;51.244;6.774;2023-03-01T04:54:49;9.30;;;7.87;;
12356;SDS011;6243;51.244;6.774;2023-03-01T04:57:15;10.10;;;7.83;;
12356;SDS011;6243;51.244;6.774;2023-03-01T04:59:41;9.87;;;8.50;;
12356;SDS011;6243;51.244;6.774;2023-03-01T05:02:08;9.93;;;7.77;;
12356;SDS011;6243;51.244;6.774;2023-03-01T05:04:33;9.10;;;7.83;;
12356;SDS011;6243;51.244;6.774;2023-03-01T05:06:59;12.10;;;8.43;;
12356;SDS011;6243;51.244;6.774;2023-03-01T05:09:24;11.70;;;8.33;;
12356;SDS011;6243;51.244;6.774;2023-03-01T05:11:49;12.03;;;8.33;;
12356;SDS011;6243;51.244;6.774;2023-03-01T05:14:15;11.57;;;8.57;;
12356;SDS011;6243;51.244;6.774;2023-03-01T05:16:40;10.90;;;8.63;;
12356;SDS011;6243;51.244;6.774;2023-03-01T05:19:07;10.63;;;8.17;;
12356;SDS011;6243;51.244;6.774;2023-03-01T05:21:33;11.33;;;8.03;;
12356;SDS011;6243;51.244;6.774;2023-03-01T05:23:58;11.97;;;8.07;;
12356;SDS011;6243;51.244;6.774;2023-03-01T05:26:24;10.70;;;8.57;;
12356;SDS011;6243;51.244;6.774;2023-03-01T05:28:49;10.30;;;8.47;;
12356;SDS011;6243;51.244;6.774;2023-03-01T05:31:15;9.40;;;7.73;;
12356;SDS011;6243;51.244;6.774;2023-03-01T05:33:40;11.23;;;8.53;;
12356;SDS011;6243;51.244;6.774;2023-03-01T05:36:08;9.73;;;7.87;;
12356;SDS011;6243;51.244;6.774;2023-03-01T05:38:34;9.80;;;8.00;;
12356;SDS011;6243;51.244;6.774;2023-03-01T05:41:01;10.97;;;8.87;;
12356;SDS011;6243;51.244;6.774;2023-03-01T05:43:29;13.00;;;8.63;;
12356;SDS011;6243;51.244;6.774;2023-03-01T05:45:57;10.13;;;8.73;;
12356;SDS011;6243;51.244;6.774;2023-03-01T05:48:23;10.27;;;8.50;;
12356;SDS011;6243;51.244;6.774;2023-03-01T05:50:48;10.67;;;8.30;;
12356;SDS011;6243;51.244;6.774;2023-03-01T05:53:16;10.57;;;7.93;;
12356;SDS011;6243;51.244;6.774;2023-03-01T05:55:43;9.97;;;8.17;;
12356;SDS011;6243;51.244;6.774;2023-03-01T05:58:09;11.43;;;8.43;;
12356;SDS011;6243;51.244;6.774;2023-03-01T06:00:37;11.63;;;8.83;;
12356;SDS011;6243;51.244;6.774;2023-03-01T06:03:02;11.13;;;8.00;;
12356;SDS011;6243;51.244;6.774;2023-03-01T06:05:28;9.90;;;8.27;;
12356;SDS011;6243;51.244;6.774;2023-03-01T06:07:54;14.00;;;9.10;;
12356;SDS011;6243;51.244;6.774;2023-03-01T06:10:22;12.03;;;8.57;;
12356;SDS011;6243;51.244;6.774;2023-03-01T06:12:47;12.53;;;8.53;;
12356;SDS011;6243;51.244;6.774;2023-03-01T06:15:14;11.13;;;9.10;;
12356;SDS011;6243;51.244;6.774;2023-03-01T06:17:42;11.30;;;8.50;;
12356;SDS011;6243;51.244;6.774;2023-03-01T06:20:09;14.00;;;9.30;;
12356;SDS011;6243;51.244;6.774;2023-03-01T06:22:36;11.03;;;8.43;;
12356;SDS011;6243;51.244;6.774;2023-03-01T06:25:02;11.50;;;8.47;;
12356;SDS011;6243;51.244;6.774;2023-03-01T06:27:29;11.07;;;8.67;;
12356;SDS011;6243;51.244;6.774;2023-03-01T06:29:55;12.17;;;9.10;;
12356;SDS011;6243;51.244;6.774;2023-03-01T06:32:20;11.37;;;8.70;;
12356;SDS011;6243;51.244;6.774;2023-03-01T06:34:46;11.60;;;9.80;;
12356;SDS011;6243;51.244;6.774;2023-03-01T06:37:11;12.13;;;9.60;;
12356;SDS011;6243;51.244;6.774;2023-03-01T06:39:37;10.37;;;8.53;;
12356;SDS011;6243;51.244;6.774;2023-03-01T06:42:02;12.10;;;8.77;;
12356;SDS011;6243;51.244;6.774;2023-03-01T06:44:29;12.00;;;9.33;;
12356;SDS011;6243;51.244;6.774;2023-03-01T06:46:55;13.23;;;9.93;;
12356;SDS011;6243;51.244;6.774;2023-03-01T06:49:21;11.73;;;9.07;;
12356;SDS011;6243;51.244;6.774;2023-03-01T06:51:47;12.63;;;9.60;;
12356;SDS011;6243;51.244;6.774;2023-03-01T06:54:12;10.70;;;9.20;;
12356;SDS011;6243;51.244;6.774;2023-03-01T06:56:38;11.00;;;9.13;;
12356;SDS011;6243;51.244;6.774;2023-03-01T06:59:04;12.20;;;8.73;;
12356;SDS011;6243;51.244;6.774;2023-03-01T07:01:31;12.07;;;8.97;;
12356;SDS011;6243;51.244;6.774;2023-03-01T07:03:56;14.57;;;9.17;;
12356;SDS011;6243;51.244;6.774;2023-03-01T07:06:22;10.77;;;8.50;;
12356;SDS011;6243;51.244;6.774;2023-03-01T07:08:48;18.03;;;9.77;;
12356;SDS011;6243;51.244;6.774;2023-03-01T07:11:13;12.37;;;9.33;;
12356;SDS011;6243;51.244;6.774;2023-03-01T07:13:39;11.70;;;9.57;;
12356;SDS011;6243;51.244;6.774;2023-03-01T07:16:05;11.13;;;9.63;;
12356;SDS011;6243;51.244;6.774;2023-03-01T07:18:33;13.77;;;9.90;;
12356;SDS011;6243;51.244;6.774;2023-03-01T07:20:58;12.77;;;9.17;;
12356;SDS011;6243;51.244;6.774;2023-03-01T07:23:29;12.33;;;8.67;;
12356;SDS011;6243;51.244;6.774;2023-03-01T07:25:54;13.23;;;9.73;;
12356;SDS011;6243;51.244;6.774;2023-03-01T07:28:20;10.63;;;8.70;;
12356;SDS011;6243;51.244;6.774;2023-03-01T07:30:47;13.07;;;9.90;;
12356;SDS011;6243;51.244;6.774;2023-03-01T07:33:13;13.27;;;9.17;;
12356;SDS011;6243;51.244;6.774;2023-03-01T07:35:40;11.53;;;9.10;;
12356;SDS011;6243;51.244;6.774;2023-03-01T07:38:05;12.53;;;8.73;;
12356;SDS011;6243;51.244;6.774;2023-03-01T07:40:31;13.23;;;9.47;;
12356;SDS011;6243;51.244;6.774;2023-03-01T07:42:56;10.90;;;9.23;;
12356;SDS011;6243;51.244;6.774;2023-03-01T07:45:22;12.47;;;9.33;;
12356;SDS011;6243;51.244;6.774;2023-03-01T07:47:48;10.27;;;8.90;;
12356;SDS011;6243;51.244;6.774;2023-03-01T07:50:15;10.03;;;8.43;;
12356;SDS011;6243;51.244;6.774;2023-03-01T07:52:44;10.17;;;8.97;;
12356;SDS011;6243;51.244;6.774;2023-03-01T07:55:10;12.63;;;9.47;;
12356;SDS011;6243;51.244;6.774;2023-03-01T07:57:35;14.83;;;10.43;;
12356;SDS011;6243;51.244;6.774;2023-03-01T08:00:01;14.20;;;9.77;;
12356;SDS011;6243;51.244;6.774;2023-03-01T08:02:26;10.80;;;9.27;;
12356;SDS011;6243;51.244;6.774;2023-03-01T08:04:52;11.13;;;9.57;;
12356;SDS011;6243;51.244;6.774;2023-03-01T08:07:17;15.37;;;9.87;;
12356;SDS011;6243;51.244;6.774;2023-03-01T08:09:44;14.07;;;9.47;;
12356;SDS011;6243;51.244;6.774;2023-03-01T08:12:09;11.83;;;9.60;;
12356;SDS011;6243;51.244;6.774;2023-03-01T08:14:35;14.73;;;9.43;;
12356;SDS011;6243;51.244;6.774;2023-03-01T08:17:00;12.33;;;9.47;;
12356;SDS011;6243;51.244;6.774;2023-03-01T08:19:26;11.90;;;9.40;;
12356;SDS011;6243;51.244;6.774;2023-03-01T08:21:51;11.60;;;8.97;;
12356;SDS011;6243;51.244;6.774;2023-03-01T08:24:17;12.20;;;10.03;;
12356;SDS011;6243;51.244;6.774;2023-03-01T08:26:44;12.53;;;9.47;;
12356;SDS011;6243;51.244;6.774;2023-03-01T08:29:10;12.57;;;9.23;;
12356;SDS011;6243;51.244;6.774;2023-03-01T08:31:36;10.87;;;9.13;;
12356;SDS011;6243;51.244;6.774;2023-03-01T08:34:04;13.00;;;8.70;;
12356;SDS011;6243;51.244;6.774;2023-03-01T08:36:32;12.70;;;8.80;;
12356;SDS011;6243;51.244;6.774;2023-03-01T08:39:00;11.80;;;9.37;;
12356;SDS011;6243;51.244;6.774;2023-03-01T08:41:26;10.53;;;8.90;;
12356;SDS011;6243;51.244;6.774;2023-03-01T08:43:53;13.17;;;9.80;;
12356;SDS011;6243;51.244;6.774;2023-03-01T08:46:19;11.70;;;8.97;;
12356;SDS011;6243;51.244;6.774;2023-03-01T08:48:44;14.07;;;9.47;;
12356;SDS011;6243;51.244;6.774;2023-03-01T08:51:11;10.90;;;9.07;;
12356;SDS011;6243;51.244;6.774;2023-03-01T08:53:38;11.70;;;9.00;;
12356;SDS011;6243;51.244;6.774;2023-03-01T08:56:04;13.03;;;9.07;;
12356;SDS011;6243;51.244;6.774;2023-03-01T08:58:30;10.07;;;8.60;;
12356;SDS011;6243;51.244;6.774;2023-03-01T09:00:57;10.73;;;9.07;;
12356;SDS011;6243;51.244;6.774;2023-03-01T09:03:22;9.77;;;8.77;;
12356;SDS011;6243;51.244;6.774;2023-03-01T09:05:48;10.77;;;8.33;;
12356;SDS011;6243;51.244;6.774;2023-03-01T09:08:13;10.77;;;8.33;;
12356;SDS011;6243;51.244;6.774;2023-03-01T09:10:39;11.03;;;8.63;;
12356;SDS011;6243;51.244;6.774;2023-03-01T09:13:04;10.80;;;8.80;;
12356;SDS011;6243;51.244;6.774;2023-03-01T09:15:30;9.60;;;8.30;;
12356;SDS011;6243;51.244;6.774;2023-03-01T09:17:56;11.80;;;9.13;;
12356;SDS011;6243;51.244;6.774;2023-03-01T09:20:22;11.67;;;9.23;;
12356;SDS011;6243;51.244;6.774;2023-03-01T09:22:47;10.37;;;8.43;;
12356;SDS011;6243;51.244;6.774;2023-03-01T09:25:13;10.80;;;8.47;;
12356;SDS011;6243;51.244;6.774;2023-03-01T09:27:38;11.90;;;8.97;;
12356;SDS011;6243;51.244;6.774;2023-03-01T09:30:04;10.77;;;8.30;;
12356;SDS011;6243;51.244;6.774;2023-03-01T09:32:31;9.67;;;8.07;;
12356;SDS011;6243;51.244;6.774;2023-03-01T09:34:58;11.90;;;8.33;;
12356;SDS011;6243;51.244;6.774;2023-03-01T09:37:23;10.90;;;8.10;;
12356;SDS011;6243;51.244;6.774;2023-03-01T09:39:49;9.20;;;7.53;;
12356;SDS011;6243;51.244;6.774;2023-03-01T09:42:14;10.40;;;8.20;;
12356;SDS011;6243;51.244;6.774;2023-03-01T09:44:41;11.40;;;8.23;;
12356;SDS011;6243;51.244;6.774;2023-03-01T09:47:12;9.33;;;7.83;;
12356;SDS011;6243;51.244;6.774;2023-03-01T09:49:42;10.33;;;8.17;;
12356;SDS011;6243;51.244;6.774;2023-03-01T09:52:15;10.00;;;7.90;;
12356;SDS011;6243;51.244;6.774;2023-03-01T09:54:49;10.47;;;7.87;;
12356;SDS011;6243;51.244;6.774;2023-03-01T09:57:20;11.17;;;8.73;;
12356;SDS011;6243;51.244;6.774;2023-03-01T10:00:08;10.10;;;7.47;;
12356;SDS011;6243;51.244;6.774;2023-03-01T10:02:41;10.23;;;8.50;;
12356;SDS011;6243;51.244;6.774;2023-03-01T10:05:13;10.30;;;8.03;;
12356;SDS011;6243;51.244;6.774;2023-03-01T10:07:54;10.00;;;8.40;;
12356;SDS011;6243;51.244;6.774;2023-03-01T10:10:26;11.00;;;8.20;;
12356;SDS011;6243;51.244;6.774;2023-03-01T10:12:53;8.93;;;7.70;;
12356;SDS011;6243;51.244;6.774;2023-03-01T10:15:22;9.73;;;7.97;;
12356;SDS011;6243;51.244;6.774;2023-03-01T10:17:55;11.13;;;8.10;;
12356;SDS011;6243;51.244;6.774;2023-03-01T10:20:25;10.13;;;8.10;;
12356;SDS011;6243;51.244;6.774;2023-03-01T10:22:56;10.83;;;8.50;;
12356;SDS011;6243;51.244;6.774;2023-03-01T10:25:24;12.20;;;8.63;;
12356;SDS011;6243;51.244;6.774;2023-03-01T10:28:06;9.87;;;8.10;;
12356;SDS011;6243;51.244;6.774;2023-03-01T10:30:39;11.77;;;9.10;;
12356;SDS011;6243;51.244;6.774;2023-03-01T10:33:08;10.07;;;8.63;;
12356;SDS011;6243;51.244;6.774;2023-03-01T10:35:41;11.43;;;8.23;;
12356;SDS011;6243;51.244;6.774;2023-03-01T10:38:09;10.73;;;8.47;;
12356;SDS011;6243;51.244;6.774;2023-03-01T10:40:37;10.50;;;8.47;;
12356;SDS011;6243;51.244;6.774;2023-03-01T10:43:16;9.73;;;7.97;;
12356;SDS011;6243;51.244;6.774;2023-03-01T10:45:42;8.30;;;7.40;;
12356;SDS011;6243;51.244;6.774;2023-03-01T10:48:11;10.37;;;8.17;;
12356;SDS011;6243;51.244;6.774;2023-03-01T10:50:38;10.57;;;8.60;;
12356;SDS011;6243;51.244;6.774;2023-03-01T10:53:04;9.90;;;8.13;;
12356;SDS011;6243;51.244;6.774;2023-03-01T10:55:42;9.87;;;8.03;;
12356;SDS011;6243;51.244;6.774;2023-03-01T10:58:15;9.93;;;7.63;;
12356;SDS011;6243;51.244;6.774;2023-03-01T11:00:46;9.73;;;7.50;;
12356;SDS011;6243;51.244;6.774;2023-03-01T11:03:15;9.00;;;7.87;;
12356;SDS011;6243;51.244;6.774;2023-03-01T11:05:53;9.13;;;7.17;;
12356;SDS011;6243;51.244;6.774;2023-03-01T11:11:19;12.27;;;7.80;;
12356;SDS011;6243;51.244;6.774;2023-03-01T11:13:58;8.67;;;6.83;;
12356;SDS011;6243;51.244;6.774;2023-03-01T11:16:27;10.93;;;7.80;;
12356;SDS011;6243;51.244;6.774;2023-03-01T11:21:54;10.97;;;7.87;;
12356;SDS011;6243;51.244;6.774;2023-03-01T11:24:26;10.17;;;7.53;;
12356;SDS011;6243;51.244;6.774;2023-03-01T11:26:56;10.30;;;8.00;;
12356;SDS011;6243;51.244;6.774;2023-03-01T11:29:29;10.83;;;8.23;;
12356;SDS011;6243;51.244;6.774;2023-03-01T11:31:58;8.83;;;7.27;;
12356;SDS011;6243;51.244;6.774;2023-03-01T11:34:29;8.47;;;7.43;;
12356;SDS011;6243;51.244;6.774;2023-03-01T11:37:03;9.50;;;7.90;;
12356;SDS011;6243;51.244;6.774;2023-03-01T11:39:38;9.67;;;7.67;;
12356;SDS011;6243;51.244;6.774;2023-03-01T11:42:11;9.37;;;7.07;;
12356;SDS011;6243;51.244;6.774;2023-03-01T11:44:40;9.53;;;7.23;;
12356;SDS011;6243;51.244;6.774;2023-03-01T11:47:12;9.87;;;8.03;;
12356;SDS011;6243;51.244;6.774;2023-03-01T11:49:52;9.17;;;7.90;;
12356;SDS011;6243;51.244;6.774;2023-03-01T11:52:29;9.27;;;7.50;;
12356;SDS011;6243;51.244;6.774;2023-03-01T11:55:08;8.60;;;6.80;;
12356;SDS011;6243;51.244;6.774;2023-03-01T11:57:47;8.87;;;6.77;;
12356;SDS011;6243;51.244;6.774;2023-03-01T12:00:36;8.57;;;7.43;;
12356;SDS011;6243;51.244;6.774;2023-03-01T12:03:23;8.37;;;6.80;;
12356;SDS011;6243;51.244;6.774;2023-03-01T12:05:59;9.50;;;7.37;;
12356;SDS011;6243;51.244;6.774;2023-03-01T12:08:33;8.40;;;6.97;;
12356;SDS011;6243;51.244;6.774;2023-03-01T12:11:03;8.20;;;6.87;;
12356;SDS011;6243;51.244;6.774;2023-03-01T12:13:46;7.97;;;6.47;;
12356;SDS011;6243;51.244;6.774;2023-03-01T12:16:38;9.40;;;7.23;;
12356;SDS011;6243;51.244;6.774;2023-03-01T12:19:25;8.13;;;7.03;;
12356;SDS011;6243;51.244;6.774;2023-03-01T12:22:09;9.13;;;7.00;;
12356;SDS011;6243;51.244;6.774;2023-03-01T12:24:58;8.80;;;6.67;;
12356;SDS011;6243;51.244;6.774;2023-03-01T12:27:46;7.33;;;6.63;;
12356;SDS011;6243;51.244;6.774;2023-03-01T12:30:28;8.27;;;6.17;;
12356;SDS011;6243;51.244;6.774;2023-03-01T12:33:06;9.33;;;7.33;;
12356;SDS011;6243;51.244;6.774;2023-03-01T12:35:47;8.63;;;6.90;;
12356;SDS011;6243;51.244;6.774;2023-03-01T12:38:25;6.90;;;5.93;;
12356;SDS011;6243;51.244;6.774;2023-03-01T12:44:25;9.87;;;6.20;;
12356;SDS011;6243;51.244;6.774;2023-03-01T12:47:04;8.93;;;6.07;;
12356;SDS011;6243;51.244;6.774;2023-03-01T12:49:38;7.70;;;6.07;;
12356;SDS011;6243;51.244;6.774;2023-03-01T12:52:09;7.73;;;6.43;;
12356;SDS011;6243;51.244;6.774;2023-03-01T12:54:39;7.20;;;6.43;;
12356;SDS011;6243;51.244;6.774;2023-03-01T12:57:07;7.33;;;6.23;;
12356;SDS011;6243;51.244;6.774;2023-03-01T12:59:37;6.80;;;6.10;;
12356;SDS011;6243;51.244;6.774;2023-03-01T13:02:13;8.63;;;6.07;;
12356;SDS011;6243;51.244;6.774;2023-03-01T13:04:52;7.60;;;5.60;;
12356;SDS011;6243;51.244;6.774;2023-03-01T13:07:28;8.00;;;6.10;;
12356;SDS011;6243;51.244;6.774;2023-03-01T13:10:06;6.83;;;6.13;;
12356;SDS011;6243;51.244;6.774;2023-03-01T13:12:43;7.07;;;6.07;;
12356;SDS011;6243;51.244;6.774;2023-03-01T13:20:55;7.57;;;6.27;;
12356;SDS011;6243;51.244;6.774;2023-03-01T13:23:27;7.13;;;5.97;;
12356;SDS011;6243;51.244;6.774;2023-03-01T13:28:50;8.07;;;6.07;;
12356;SDS011;6243;51.244;6.774;2023-03-01T13:34:42;7.13;;;5.87;;
12356;SDS011;6243;51.244;6.774;2023-03-01T13:37:26;7.93;;;5.83;;
12356;SDS011;6243;51.244;6.774;2023-03-01T13:39:53;7.67;;;6.13;;
12356;SDS011;6243;51.244;6.774;2023-03-01T13:45:21;7.10;;;5.80;;
12356;SDS011;6243;51.244;6.774;2023-03-01T13:47:52;6.67;;;5.80;;
12356;SDS011;6243;51.244;6.774;2023-03-01T13:50:22;7.03;;;6.17;;
12356;SDS011;6243;51.244;6.774;2023-03-01T13:52:52;7.10;;;5.83;;
12356;SDS011;6243;51.244;6.774;2023-03-01T13:55:21;8.17;;;6.20;;
12356;SDS011;6243;51.244;6.774;2023-03-01T13:57:50;7.20;;;5.60;;
12356;SDS011;6243;51.244;6.774;2023-03-01T14:00:30;6.90;;;6.00;;
12356;SDS011;6243;51.244;6.774;2023-03-01T14:03:02;7.20;;;5.63;;
12356;SDS011;6243;51.244;6.774;2023-03-01T14:05:30;8.00;;;6.17;;
12356;SDS011;6243;51.244;6.774;2023-03-01T14:07:56;7.63;;;6.17;;
12356;SDS011;6243;51.244;6.774;2023-03-01T14:10:22;8.00;;;6.77;;
12356;SDS011;6243;51.244;6.774;2023-03-01T14:12:58;10.23;;;6.50;;
12356;SDS011;6243;51.244;6.774;2023-03-01T14:15:31;7.47;;;6.40;;
12356;SDS011;6243;51.244;6.774;2023-03-01T14:18:02;6.93;;;5.70;;
12356;SDS011;6243;51.244;6.774;2023-03-01T14:20:33;8.67;;;5.97;;
12356;SDS011;6243;51.244;6.774;2023-03-01T14:23:12;6.87;;;6.03;;
12356;SDS011;6243;51.244;6.774;2023-03-01T14:25:45;8.47;;;6.10;;
12356;SDS011;6243;51.244;6.774;2023-03-01T14:28:14;7.13;;;5.80;;
12356;SDS011;6243;51.244;6.774;2023-03-01T14:30:43;7.53;;;5.87;;
12356;SDS011;6243;51.244;6.774;2023-03-01T14:33:18;9.77;;;6.80;;
12356;SDS011;6243;51.244;6.774;2023-03-01T14:35:53;10.97;;;6.57;;
12356;SDS011;6243;51.244;6.774;2023-03-01T14:38:21;8.70;;;6.53;;
12356;SDS011;6243;51.244;6.774;2023-03-01T14:40:47;8.90;;;6.60;;
12356;SDS011;6243;51.244;6.774;2023-03-01T14:43:21;9.20;;;6.60;;
12356;SDS011;6243;51.244;6.774;2023-03-01T14:45:48;8.93;;;7.00;;
12356;SDS011;6243;51.244;6.774;2023-03-01T14:48:17;7.20;;;5.90;;
12356;SDS011;6243;51.244;6.774;2023-03-01T14:50:43;8.23;;;6.27;;
12356;SDS011;6243;51.244;6.774;2023-03-01T14:53:15;9.73;;;6.33;;
12356;SDS011;6243;51.244;6.774;2023-03-01T14:55:44;7.03;;;5.87;;
12356;SDS011;6243;51.244;6.774;2023-03-01T14:58:13;6.80;;;6.07;;
12356;SDS011;6243;51.244;6.774;2023-03-01T15:00:42;8.17;;;6.23;;
12356;SDS011;6243;51.244;6.774;2023-03-01T15:03:14;6.73;;;5.63;;
12356;SDS011;6243;51.244;6.774;2023-03-01T15:05:45;7.60;;;6.27;;
12356;SDS011;6243;51.244;6.774;2023-03-01T15:08:15;7.27;;;5.93;;
12356;SDS011;6243;51.244;6.774;2023-03-01T15:10:54;7.20;;;6.50;;
12356;SDS011;6243;51.244;6.774;2023-03-01T15:13:22;7.23;;;5.97;;
12356;SDS011;6243;51.244;6.774;2023-03-01T15:15:49;8.57;;;5.70;;
12356;SDS011;6243;51.244;6.774;2023-03-01T15:18:17;7.87;;;5.87;;
12356;SDS011;6243;51.244;6.774;2023-03-01T15:20:44;8.30;;;6.13;;
12356;SDS011;6243;51.244;6.774;2023-03-01T15:23:19;8.53;;;6.03;;
12356;SDS011;6243;51.244;6.774;2023-03-01T15:25:47;8.93;;;6.30;;
12356;SDS011;6243;51.244;6.774;2023-03-01T15:28:17;8.33;;;6.10;;